Time;durP1;ratioP1;P1;durP2;ratioP2;P2;SDS_P1;SDS_P2;PMS_P1;PMS_P2;Temp;Humidity;BMP_temperature;BMP_pressure;BME280_temperature;BME280_humidity;BME280_pressure;Samples;Min_cycle;Max_cycle;Signal;HPM_P1;HPM_P2
2022/11/13 00:01:16;;;;;;;;;;;;;;;;;;5067706;28;20431;-55
2022/11/13 00:03:43;;;;;;;;;;;;;;;;;;5067122;28;20340;-58
2022/11/13 00:06:10;;;;;;;;;;;;;;;;;;5062442;28;19928;-58
2022/11/13 00:08:36;;;;;;;;;;;;;;;;;;5073078;28;19967;-56
2022/11/13 00:11:04;;;;;;;;;;;;;;;;;;5073102;28;20019;-58
2022/11/13 00:13:32;;;;;;;;;;;;;;;;;;5072717;28;20336;-58
2022/11/13 00:15:59;;;;;;;;;;;;;;;;;;5072736;28;19978;-64
2022/11/13 00:18:26;;;;;;;;;;;;;;;;;;5073521;28;20343;-57
2022/11/13 00:20:53;;;;;;;;;;;;;;;;;;5070304;28;20401;-58
2022/11/13 00:23:19;;;;;;;;;;;;;;;;;;5073083;28;20340;-58
2022/11/13 00:25:46;;;;;;;;;;;;;;;;;;5072887;28;19930;-57
2022/11/13 00:28:12;;;;;;;;;;;;;;;;;;5073052;28;20286;-58
2022/11/13 00:30:40;;;;;;;;;;;;;;;;;;5072817;28;19970;-59
2022/11/13 00:33:07;;;;;;;;;;;;;;;;;;5072406;28;19978;-54
2022/11/13 00:35:33;;;;;;;;;;;;;;;;;;5072664;28;19932;-58
2022/11/13 00:38:00;;;;;;;;;;;;;;;;;;5072965;28;19929;-57
2022/11/13 00:40:26;;;;;;;;;;;;;;;;;;5073028;28;20489;-58
2022/11/13 00:42:53;;;;;;;;;;;;;;;;;;5072522;28;19928;-58
2022/11/13 00:45:19;;;;;;;;;;;;;;;;;;5072363;28;19932;-56
2022/11/13 00:47:47;;;;;;;;;;;;;;;;;;5072241;28;19935;-57
2022/11/13 00:50:14;;;;;;;;;;;;;;;;;;5072508;28;20006;-58
2022/11/13 00:52:40;;;;;;;;;;;;;;;;;;5071917;28;19928;-59
2022/11/13 00:55:07;;;;;;;;;;;;;;;;;;5072954;28;20340;-57
2022/11/13 00:57:34;;;;;;;;;;;;;;;;;;5072372;28;19932;-58
2022/11/13 01:00:00;;;;;;;;;;;;;;;;;;5072538;28;19970;-55
2022/11/13 01:02:27;;;;;;;;;;;;;;;;;;5072109;28;19970;-58
2022/11/13 01:04:55;;;;;;;;;;;;;;;;;;5054853;28;19932;-54
2022/11/13 01:07:21;;;;;;;;;;;;;;;;;;5065142;28;19924;-55
2022/11/13 01:09:49;;;;;;;;;;;;;;;;;;5071410;28;19926;-55
2022/11/13 01:12:16;;;;;;;;;;;;;;;;;;5071968;28;19939;-56
2022/11/13 01:14:43;;;;;;;;;;;;;;;;;;5072035;28;19924;-55
2022/11/13 01:17:10;;;;;;;;;;;;;;;;;;5072040;28;19959;-55
2022/11/13 01:19:36;;;;;;;;;;;;;;;;;;5072495;28;19933;-59
2022/11/13 01:22:04;;;;;;;;;;;;;;;;;;5072056;28;19935;-57
2022/11/13 01:24:31;;;;;;;;;;;;;;;;;;5072190;28;19932;-58
2022/11/13 01:26:57;;;;;;;;;;;;;;;;;;5071965;28;19970;-57
2022/11/13 01:29:24;;;;;;;;;;;;;;;;;;5072185;28;19924;-57
2022/11/13 01:31:50;;;;;;;;;;;;;;;;;;5071967;28;19928;-54
2022/11/13 01:34:17;;;;;;;;;;;;;;;;;;5071667;28;19928;-56
2022/11/13 01:36:43;;;;;;;;;;;;;;;;;;5072082;28;20023;-58
2022/11/13 01:39:12;;;;;;;;;;;;;;;;;;5072072;28;19971;-58
2022/11/13 01:41:38;;;;;;;;;;;;;;;;;;5071884;28;19928;-57
2022/11/13 01:44:07;;;;;;;;;;;;;;;;;;5071491;28;20459;-55
2022/11/13 01:46:33;;;;;;;;;;;;;;;;;;5071636;28;19936;-55
2022/11/13 01:49:03;;;;;;;;;;;;;;;;;;5073938;28;20381;-55
2022/11/13 01:51:32;;;;;;;;;;;;;;;;;;5087171;28;20366;-57
2022/11/13 01:54:00;;;;;;;;;;;;;;;;;;5071637;28;19924;-55
2022/11/13 01:56:29;;;;;;;;;;;;;;;;;;5071730;28;19928;-57
2022/11/13 01:58:58;;;;;;;;;;;;;;;;;;5071818;28;19985;-57
2022/11/13 02:01:25;;;;;;;;;;;;;;;;;;5071747;28;19933;-57
2022/11/13 02:03:51;;;;;;;;;;;;;;;;;;5071592;28;19929;-57
2022/11/13 02:06:19;;;;;;;;;;;;;;;;;;5071490;28;19924;-54
2022/11/13 02:08:46;;;;;;;;;;;;;;;;;;5071229;28;19936;-54
2022/11/13 02:11:12;;;;;;;;;;;;;;;;;;5071900;28;19971;-55
2022/11/13 02:13:40;;;;;;;;;;;;;;;;;;5071410;28;19928;-54
2022/11/13 02:16:09;;;;;;;;;;;;;;;;;;5071699;28;19932;-53
2022/11/13 02:18:36;;;;;;;;;;;;;;;;;;5071303;28;19989;-55
2022/11/13 02:21:06;;;;;;;;;;;;;;;;;;5075177;28;19931;-56
2022/11/13 02:23:37;;;;;;;;;;;;;;;;;;5074897;28;20443;-53
2022/11/13 02:26:05;;;;;;;;;;;;;;;;;;5075281;28;19928;-56
2022/11/13 02:28:32;;;;;;;;;;;;;;;;;;5075283;28;19974;-56
2022/11/13 02:31:05;;;;;;;;;;;;;;;;;;5075196;28;19924;-57
2022/11/13 02:33:33;;;;;;;;;;;;;;;;;;5075084;28;19929;-55
2022/11/13 02:35:59;;;;;;;;;;;;;;;;;;5074745;28;19929;-55
2022/11/13 02:38:26;;;;;;;;;;;;;;;;;;5074562;28;19994;-56
2022/11/13 02:40:52;;;;;;;;;;;;;;;;;;5074894;28;20046;-57
2022/11/13 02:43:20;;;;;;;;;;;;;;;;;;5054938;28;19929;-57
2022/11/13 02:45:47;;;;;;;;;;;;;;;;;;5062010;28;19974;-57
2022/11/13 02:48:13;;;;;;;;;;;;;;;;;;5074850;28;19936;-56
2022/11/13 02:50:40;;;;;;;;;;;;;;;;;;5074603;28;19924;-57
2022/11/13 02:53:06;;;;;;;;;;;;;;;;;;5074460;28;20381;-56
2022/11/13 02:55:33;;;;;;;;;;;;;;;;;;5074598;28;19928;-58
2022/11/13 02:57:59;;;;;;;;;;;;;;;;;;5074692;28;19924;-54
2022/11/13 03:00:27;;;;;;;;;;;;;;;;;;5074496;28;19932;-57
2022/11/13 03:02:54;;;;;;;;;;;;;;;;;;5055542;28;19994;-55
2022/11/13 03:05:21;;;;;;;;;;;;;;;;;;5074273;28;19924;-56
2022/11/13 03:07:47;;;;;;;;;;;;;;;;;;5074504;28;20344;-56
2022/11/13 03:10:14;;;;;;;;;;;;;;;;;;5074754;28;19928;-55
2022/11/13 03:12:41;;;;;;;;;;;;;;;;;;5073961;28;20411;-54
2022/11/13 03:15:08;;;;;;;;;;;;;;;;;;5074118;28;19974;-55
2022/11/13 03:17:36;;;;;;;;;;;;;;;;;;5074670;28;20532;-56
2022/11/13 03:20:03;;;;;;;;;;;;;;;;;;5073997;28;19970;-57
2022/11/13 03:22:30;;;;;;;;;;;;;;;;;;5073996;28;19924;-57
2022/11/13 03:24:57;;;;;;;;;;;;;;;;;;5074259;28;19924;-56
2022/11/13 03:27:23;;;;;;;;;;;;;;;;;;5074229;28;20370;-54
2022/11/13 03:29:53;;;;;;;;;;;;;;;;;;5074143;28;20443;-56
2022/11/13 03:32:20;;;;;;;;;;;;;;;;;;5073218;28;19924;-56
2022/11/13 03:34:47;;;;;;;;;;;;;;;;;;5073655;28;19925;-55
2022/11/13 03:37:14;;;;;;;;;;;;;;;;;;5074345;28;19974;-56
2022/11/13 03:39:41;;;;;;;;;;;;;;;;;;5073753;28;20278;-57
2022/11/13 03:42:07;;;;;;;;;;;;;;;;;;5073786;28;19925;-57
2022/11/13 03:44:34;;;;;;;;;;;;;;;;;;5073379;28;19924;-53
2022/11/13 03:47:00;;;;;;;;;;;;;;;;;;5074090;28;20343;-56
2022/11/13 03:49:27;;;;;;;;;;;;;;;;;;5073436;28;20332;-53
2022/11/13 03:51:55;;;;;;;;;;;;;;;;;;5073571;28;20385;-56
2022/11/13 03:54:21;;;;;;;;;;;;;;;;;;5073193;28;19924;-57
2022/11/13 03:56:48;;;;;;;;;;;;;;;;;;5073888;28;19925;-56
2022/11/13 03:59:14;;;;;;;;;;;;;;;;;;5073224;28;20012;-55
2022/11/13 04:01:41;;;;;;;;;;;;;;;;;;5074414;28;19925;-52
2022/11/13 04:04:07;;;;;;;;;;;;;;;;;;5064982;28;19929;-51
2022/11/13 04:06:34;;;;;;;;;;;;;;;;;;5076083;28;19928;-52
2022/11/13 04:09:02;;;;;;;;;;;;;;;;;;5076919;28;19939;-54
2022/11/13 04:11:28;;;;;;;;;;;;;;;;;;5077477;28;19947;-50
2022/11/13 04:13:55;;;;;;;;;;;;;;;;;;5076036;28;19932;-51
2022/11/13 04:16:22;;;;;;;;;;;;;;;;;;5076307;28;19966;-50
2022/11/13 04:18:48;;;;;;;;;;;;;;;;;;5076474;28;19978;-52
2022/11/13 04:21:15;;;;;;;;;;;;;;;;;;5076175;28;19924;-50
2022/11/13 04:23:41;;;;;;;;;;;;;;;;;;5078250;28;19924;-54
2022/11/13 04:26:09;;;;;;;;;;;;;;;;;;5076061;28;19925;-53
2022/11/13 04:28:36;;;;;;;;;;;;;;;;;;5076604;28;19944;-53
2022/11/13 04:31:02;;;;;;;;;;;;;;;;;;5075997;28;19978;-53
2022/11/13 04:33:29;;;;;;;;;;;;;;;;;;5076065;28;20304;-53
2022/11/13 04:35:55;;;;;;;;;;;;;;;;;;5075563;28;19928;-50
2022/11/13 04:38:22;;;;;;;;;;;;;;;;;;5075859;28;20536;-51
2022/11/13 04:40:49;;;;;;;;;;;;;;;;;;5076258;28;19925;-51
2022/11/13 04:43:16;;;;;;;;;;;;;;;;;;5074658;28;19958;-51
2022/11/13 04:45:42;;;;;;;;;;;;;;;;;;5075614;28;19998;-52
2022/11/13 04:48:09;;;;;;;;;;;;;;;;;;5075797;28;19932;-52
2022/11/13 04:50:35;;;;;;;;;;;;;;;;;;5075361;28;19929;-51
2022/11/13 04:53:02;;;;;;;;;;;;;;;;;;5076217;28;19928;-52
2022/11/13 04:55:29;;;;;;;;;;;;;;;;;;5075708;28;20550;-51
2022/11/13 04:57:55;;;;;;;;;;;;;;;;;;5075772;28;19955;-54
2022/11/13 05:00:23;;;;;;;;;;;;;;;;;;5075058;28;19950;-54
2022/11/13 05:02:50;;;;;;;;;;;;;;;;;;5075740;28;19970;-51
2022/11/13 05:05:16;;;;;;;;;;;;;;;;;;5075012;28;19940;-50
2022/11/13 05:07:43;;;;;;;;;;;;;;;;;;5075901;28;19929;-50
2022/11/13 05:10:09;;;;;;;;;;;;;;;;;;5075891;28;19924;-51
2022/11/13 05:12:36;;;;;;;;;;;;;;;;;;5075400;28;19925;-50
2022/11/13 05:15:03;;;;;;;;;;;;;;;;;;5075293;28;19932;-50
2022/11/13 05:17:31;;;;;;;;;;;;;;;;;;5076144;28;19958;-54
2022/11/13 05:19:57;;;;;;;;;;;;;;;;;;5074781;28;20519;-52
2022/11/13 05:22:24;;;;;;;;;;;;;;;;;;5075669;28;19928;-54
2022/11/13 05:24:50;;;;;;;;;;;;;;;;;;5075786;28;19982;-51
2022/11/13 05:27:17;;;;;;;;;;;;;;;;;;5075056;28;19933;-50
2022/11/13 05:29:44;;;;;;;;;;;;;;;;;;5075590;28;19924;-50
2022/11/13 05:32:10;;;;;;;;;;;;;;;;;;5075932;28;19928;-51
2022/11/13 05:34:38;;;;;;;;;;;;;;;;;;5075041;28;19925;-51
2022/11/13 05:37:05;;;;;;;;;;;;;;;;;;5075177;28;19924;-54
2022/11/13 05:39:31;;;;;;;;;;;;;;;;;;5075653;28;19929;-50
2022/11/13 05:41:58;;;;;;;;;;;;;;;;;;5075151;28;19966;-51
2022/11/13 05:44:24;;;;;;;;;;;;;;;;;;5074962;28;19925;-51
2022/11/13 05:46:51;;;;;;;;;;;;;;;;;;5075833;28;20573;-51
2022/11/13 05:49:17;;;;;;;;;;;;;;;;;;5075275;28;19931;-51
2022/11/13 05:51:45;;;;;;;;;;;;;;;;;;5076127;28;19924;-52
2022/11/13 05:54:12;;;;;;;;;;;;;;;;;;5075158;28;19955;-51
2022/11/13 05:56:39;;;;;;;;;;;;;;;;;;5079871;28;19928;-51
2022/11/13 05:59:05;;;;;;;;;;;;;;;;;;5079776;28;19930;-53
2022/11/13 06:01:33;;;;;;;;;;;;;;;;;;5079740;28;19925;-52
2022/11/13 06:04:00;;;;;;;;;;;;;;;;;;5079511;28;19986;-51
2022/11/13 06:06:27;;;;;;;;;;;;;;;;;;5079319;28;19982;-53
2022/11/13 06:08:55;;;;;;;;;;;;;;;;;;5078927;28;19925;-52
2022/11/13 06:11:23;;;;;;;;;;;;;;;;;;5079441;28;19924;-55
2022/11/13 06:13:50;;;;;;;;;;;;;;;;;;5078802;28;19924;-52
2022/11/13 06:16:18;;;;;;;;;;;;;;;;;;5079331;28;19928;-53
2022/11/13 06:18:45;;;;;;;;;;;;;;;;;;5077626;28;19946;-53
2022/11/13 06:21:12;;;;;;;;;;;;;;;;;;5078901;28;19970;-54
2022/11/13 06:23:39;;;;;;;;;;;;;;;;;;5079259;28;19928;-51
2022/11/13 06:26:08;;;;;;;;;;;;;;;;;;5079378;28;19928;-54
2022/11/13 06:28:34;;;;;;;;;;;;;;;;;;5080110;28;19925;-53
2022/11/13 06:31:04;;;;;;;;;;;;;;;;;;5079247;28;20335;-54
2022/11/13 06:33:31;;;;;;;;;;;;;;;;;;5079880;28;19932;-54
2022/11/13 06:36:01;;;;;;;;;;;;;;;;;;5079634;28;19928;-53
2022/11/13 06:38:29;;;;;;;;;;;;;;;;;;5079225;28;19928;-53
2022/11/13 06:40:56;;;;;;;;;;;;;;;;;;5078736;28;19932;-54
2022/11/13 06:43:24;;;;;;;;;;;;;;;;;;5078269;28;19924;-51
2022/11/13 06:45:51;;;;;;;;;;;;;;;;;;5078459;28;19950;-51
2022/11/13 06:48:17;;;;;;;;;;;;;;;;;;5078203;28;19924;-53
2022/11/13 06:50:44;;;;;;;;;;;;;;;;;;5077884;28;19924;-51
2022/11/13 06:53:10;;;;;;;;;;;;;;;;;;5078041;28;19928;-53
2022/11/13 06:55:42;;;;;;;;;;;;;;;;;;5078447;28;19928;-51
2022/11/13 06:58:08;;;;;;;;;;;;;;;;;;5078084;28;19936;-53
2022/11/13 07:00:36;;;;;;;;;;;;;;;;;;5077993;28;19939;-52
2022/11/13 07:03:03;;;;;;;;;;;;;;;;;;5077415;28;20401;-54
2022/11/13 07:05:29;;;;;;;;;;;;;;;;;;5077550;28;19925;-53
2022/11/13 07:07:56;;;;;;;;;;;;;;;;;;5077168;28;19924;-51
2022/11/13 07:10:22;;;;;;;;;;;;;;;;;;5077538;28;19947;-51
2022/11/13 07:12:49;;;;;;;;;;;;;;;;;;5077343;28;20423;-55
2022/11/13 07:15:16;;;;;;;;;;;;;;;;;;5077831;28;19924;-51
2022/11/13 07:17:43;;;;;;;;;;;;;;;;;;5078151;28;19929;-53
2022/11/13 07:20:10;;;;;;;;;;;;;;;;;;5077450;28;19924;-54
2022/11/13 07:22:37;;;;;;;;;;;;;;;;;;5077375;28;19928;-53
2022/11/13 07:25:04;;;;;;;;;;;;;;;;;;5077507;28;19925;-55
2022/11/13 07:27:30;;;;;;;;;;;;;;;;;;5077597;28;19924;-55
2022/11/13 07:29:57;;;;;;;;;;;;;;;;;;5077317;28;19928;-51
2022/11/13 07:32:23;;;;;;;;;;;;;;;;;;5077760;28;20317;-54
2022/11/13 07:34:51;;;;;;;;;;;;;;;;;;5077703;28;19925;-51
2022/11/13 07:37:18;;;;;;;;;;;;;;;;;;5076785;28;19925;-52
2022/11/13 07:39:44;;;;;;;;;;;;;;;;;;5077523;28;19924;-51
2022/11/13 07:42:12;;;;;;;;;;;;;;;;;;5077449;28;19924;-51
2022/11/13 07:44:38;;;;;;;;;;;;;;;;;;5077234;28;20381;-51
2022/11/13 07:47:05;;;;;;;;;;;;;;;;;;5077642;28;19932;-52
2022/11/13 07:49:31;;;;;;;;;;;;;;;;;;5077143;28;19924;-51
2022/11/13 07:51:59;;;;;;;;;;;;;;;;;;5077143;28;19924;-53
2022/11/13 07:54:26;;;;;;;;;;;;;;;;;;5077360;28;19925;-52
2022/11/13 07:56:52;;;;;;;;;;;;;;;;;;5076540;28;19924;-51
2022/11/13 07:59:19;;;;;;;;;;;;;;;;;;5076644;28;19924;-52
2022/11/13 08:01:46;;;;;;;;;;;;;;;;;;5076712;28;19931;-51
2022/11/13 08:04:12;;;;;;;;;;;;;;;;;;5065316;28;20309;-53
2022/11/13 08:06:39;;;;;;;;;;;;;;;;;;5064933;28;19925;-53
2022/11/13 08:09:07;;;;;;;;;;;;;;;;;;5076505;28;19970;-51
2022/11/13 08:11:33;;;;;;;;;;;;;;;;;;5076511;28;19924;-54
2022/11/13 08:14:00;;;;;;;;;;;;;;;;;;5075987;28;19924;-53
2022/11/13 08:16:26;;;;;;;;;;;;;;;;;;5076399;28;19928;-52
2022/11/13 08:18:53;;;;;;;;;;;;;;;;;;5076298;28;19977;-52
2022/11/13 08:21:20;;;;;;;;;;;;;;;;;;5076356;28;19925;-53
2022/11/13 08:23:49;;;;;;;;;;;;;;;;;;5076173;28;20360;-51
2022/11/13 08:26:17;;;;;;;;;;;;;;;;;;5075903;28;19924;-52
2022/11/13 08:28:44;;;;;;;;;;;;;;;;;;5076250;28;19971;-55
2022/11/13 08:31:11;;;;;;;;;;;;;;;;;;5076024;28;19954;-52
2022/11/13 08:33:37;;;;;;;;;;;;;;;;;;5075996;28;20482;-52
2022/11/13 08:36:04;;;;;;;;;;;;;;;;;;5077037;28;19925;-54
2022/11/13 08:38:31;;;;;;;;;;;;;;;;;;5076465;28;19954;-50
2022/11/13 08:40:58;;;;;;;;;;;;;;;;;;5077052;28;19932;-52
2022/11/13 08:43:26;;;;;;;;;;;;;;;;;;5077415;28;19928;-50
2022/11/13 08:45:53;;;;;;;;;;;;;;;;;;5076579;28;19929;-52
2022/11/13 08:48:19;;;;;;;;;;;;;;;;;;5060434;28;19972;-56
2022/11/13 08:50:46;;;;;;;;;;;;;;;;;;5072464;28;19925;-54
2022/11/13 08:53:13;;;;;;;;;;;;;;;;;;5072434;28;20002;-55
2022/11/13 08:55:39;;;;;;;;;;;;;;;;;;5071615;28;19954;-55
2022/11/13 08:58:06;;;;;;;;;;;;;;;;;;5072722;28;19932;-55
2022/11/13 09:00:33;;;;;;;;;;;;;;;;;;5072471;28;19924;-56
2022/11/13 09:03:00;;;;;;;;;;;;;;;;;;5071974;28;19924;-52
2022/11/13 09:05:27;;;;;;;;;;;;;;;;;;5072183;28;19924;-56
2022/11/13 09:07:56;;;;;;;;;;;;;;;;;;5071924;28;19924;-54
2022/11/13 09:10:22;;;;;;;;;;;;;;;;;;5071924;28;19935;-54
2022/11/13 09:12:49;;;;;;;;;;;;;;;;;;5072204;28;19971;-56
2022/11/13 09:15:15;;;;;;;;;;;;;;;;;;5071651;28;19970;-56
2022/11/13 09:17:43;;;;;;;;;;;;;;;;;;5072223;28;19924;-52
2022/11/13 09:20:10;;;;;;;;;;;;;;;;;;5072073;28;20423;-56
2022/11/13 09:22:37;;;;;;;;;;;;;;;;;;5071857;28;19931;-52
2022/11/13 09:25:03;;;;;;;;;;;;;;;;;;5072151;28;20002;-54
2022/11/13 09:27:30;;;;;;;;;;;;;;;;;;5072117;28;19967;-56
2022/11/13 09:29:56;;;;;;;;;;;;;;;;;;5071424;28;19935;-54
2022/11/13 09:32:23;;;;;;;;;;;;;;;;;;5071765;28;19977;-54
2022/11/13 09:34:51;;;;;;;;;;;;;;;;;;5071502;28;20007;-54
2022/11/13 09:37:18;;;;;;;;;;;;;;;;;;5069292;28;19933;-52
2022/11/13 09:39:44;;;;;;;;;;;;;;;;;;5065692;28;20338;-54
2022/11/13 09:42:13;;;;;;;;;;;;;;;;;;5072483;28;20400;-53
2022/11/13 09:44:42;;;;;;;;;;;;;;;;;;5071817;28;19928;-53
2022/11/13 09:47:12;;;;;;;;;;;;;;;;;;5072087;28;19928;-54
2022/11/13 09:49:41;;;;;;;;;;;;;;;;;;5071917;28;19928;-52
2022/11/13 09:52:12;;;;;;;;;;;;;;;;;;5072129;28;19935;-54
2022/11/13 09:54:39;;;;;;;;;;;;;;;;;;5071555;28;19946;-54
2022/11/13 09:57:12;;;;;;;;;;;;;;;;;;5071902;28;20271;-54
2022/11/13 09:59:40;;;;;;;;;;;;;;;;;;5071724;28;19936;-56
2022/11/13 10:02:14;;;;;;;;;;;;;;;;;;5071911;28;19978;-56
2022/11/13 10:04:48;;;;;;;;;;;;;;;;;;5058141;28;19925;-53
2022/11/13 10:07:24;;;;;;;;;;;;;;;;;;5071695;28;20387;-55
2022/11/13 10:10:02;;;;;;;;;;;;;;;;;;5071972;28;19929;-53
2022/11/13 10:12:29;;;;;;;;;;;;;;;;;;5071910;28;20015;-53
2022/11/13 10:15:00;;;;;;;;;;;;;;;;;;5071758;28;19994;-56
2022/11/13 10:17:28;;;;;;;;;;;;;;;;;;5071937;28;19928;-53
2022/11/13 10:19:57;;;;;;;;;;;;;;;;;;5072039;28;19978;-52
2022/11/13 10:22:27;;;;;;;;;;;;;;;;;;5071449;28;19954;-53
2022/11/13 10:24:58;;;;;;;;;;;;;;;;;;5071507;28;19947;-51
2022/11/13 10:27:24;;;;;;;;;;;;;;;;;;5071370;28;20358;-54
2022/11/13 10:29:51;;;;;;;;;;;;;;;;;;5071746;28;20365;-53
2022/11/13 10:32:19;;;;;;;;;;;;;;;;;;5071588;28;20381;-50
2022/11/13 10:34:48;;;;;;;;;;;;;;;;;;5071400;28;20292;-54
2022/11/13 10:37:24;;;;;;;;;;;;;;;;;;5073105;28;20288;-54
2022/11/13 10:39:52;;;;;;;;;;;;;;;;;;5071820;28;19929;-51
2022/11/13 10:42:22;;;;;;;;;;;;;;;;;;5073462;28;19974;-51
2022/11/13 10:44:53;;;;;;;;;;;;;;;;;;5075174;28;20023;-54
2022/11/13 10:47:20;;;;;;;;;;;;;;;;;;5074903;28;20473;-56
2022/11/13 10:49:47;;;;;;;;;;;;;;;;;;5074994;28;19924;-50
2022/11/13 10:52:16;;;;;;;;;;;;;;;;;;5074834;28;19986;-55
2022/11/13 10:54:43;;;;;;;;;;;;;;;;;;5074778;28;19994;-51
2022/11/13 10:57:24;;;;;;;;;;;;;;;;;;5074444;28;19925;-54
2022/11/13 10:59:50;;;;;;;;;;;;;;;;;;5075143;28;20367;-54
2022/11/13 11:02:17;;;;;;;;;;;;;;;;;;5074967;28;19982;-53
2022/11/13 11:04:44;;;;;;;;;;;;;;;;;;5074698;28;19928;-54
2022/11/13 11:07:13;;;;;;;;;;;;;;;;;;5074771;28;19928;-54
2022/11/13 11:09:42;;;;;;;;;;;;;;;;;;5074303;28;19924;-53
2022/11/13 11:12:17;;;;;;;;;;;;;;;;;;5074540;28;19925;-53
2022/11/13 11:14:59;;;;;;;;;;;;;;;;;;5074026;28;19924;-50
2022/11/13 11:17:29;;;;;;;;;;;;;;;;;;5074411;28;19974;-54
2022/11/13 11:19:58;;;;;;;;;;;;;;;;;;5074341;28;19925;-54
2022/11/13 11:22:27;;;;;;;;;;;;;;;;;;5073813;28;19928;-53
2022/11/13 11:24:56;;;;;;;;;;;;;;;;;;5073537;28;19924;-54
2022/11/13 11:27:25;;;;;;;;;;;;;;;;;;5074090;28;20309;-53
2022/11/13 11:29:58;;;;;;;;;;;;;;;;;;5073742;28;20369;-52
2022/11/13 11:32:27;;;;;;;;;;;;;;;;;;5074324;28;19925;-51
2022/11/13 11:34:56;;;;;;;;;;;;;;;;;;5073688;28;19924;-54
2022/11/13 11:37:24;;;;;;;;;;;;;;;;;;5074205;28;20388;-54
2022/11/13 11:39:54;;;;;;;;;;;;;;;;;;5073715;28;20331;-54
2022/11/13 11:42:23;;;;;;;;;;;;;;;;;;5074074;28;19929;-54
2022/11/13 11:44:57;;;;;;;;;;;;;;;;;;5073324;28;20019;-61
2022/11/13 11:47:23;;;;;;;;;;;;;;;;;;5073930;28;19928;-67
2022/11/13 11:49:50;;;;;;;;;;;;;;;;;;5073809;28;19924;-64
2022/11/13 11:52:25;;;;;;;;;;;;;;;;;;5073424;28;19974;-62
2022/11/13 11:54:57;;;;;;;;;;;;;;;;;;5073218;28;19929;-68
2022/11/13 11:57:30;;;;;;;;;;;;;;;;;;5073894;28;20374;-64
2022/11/13 12:00:02;;;;;;;;;;;;;;;;;;5073514;28;20373;-62
2022/11/13 12:02:44;;;;;;;;;;;;;;;;;;5072898;28;20406;-54
2022/11/13 12:05:17;;;;;;;;;;;;;;;;;;5071764;28;19978;-63
2022/11/13 12:07:46;;;;;;;;;;;;;;;;;;5073988;28;19925;-56
2022/11/13 12:10:18;;;;;;;;;;;;;;;;;;5073619;28;20039;-54
2022/11/13 12:12:53;;;;;;;;;;;;;;;;;;5072986;28;19925;-55
2022/11/13 12:15:26;;;;;;;;;;;;;;;;;;5073319;28;19932;-54
2022/11/13 12:17:58;;;;;;;;;;;;;;;;;;5073399;28;19928;-55
2022/11/13 12:20:29;;;;;;;;;;;;;;;;;;5073404;28;19924;-55
2022/11/13 12:23:01;;;;;;;;;;;;;;;;;;5072875;28;19925;-58
2022/11/13 12:25:29;;;;;;;;;;;;;;;;;;5056736;28;19925;-54
2022/11/13 12:27:59;;;;;;;;;;;;;;;;;;5064345;28;19924;-53
2022/11/13 12:30:32;;;;;;;;;;;;;;;;;;5072998;28;20431;-55
2022/11/13 12:33:20;;;;;;;;;;;;;;;;;;5072562;28;20385;-55
2022/11/13 12:35:47;;;;;;;;;;;;;;;;;;5067531;28;19924;-54
2022/11/13 12:38:19;;;;;;;;;;;;;;;;;;5072390;28;19932;-57
2022/11/13 12:40:48;;;;;;;;;;;;;;;;;;5071898;28;20470;-56
2022/11/13 12:43:27;;;;;;;;;;;;;;;;;;5068973;28;19947;-54
2022/11/13 12:45:56;;;;;;;;;;;;;;;;;;5072864;28;19925;-56
2022/11/13 12:48:27;;;;;;;;;;;;;;;;;;5072518;28;19924;-53
2022/11/13 12:50:57;;;;;;;;;;;;;;;;;;5072201;28;19925;-54
2022/11/13 12:53:25;;;;;;;;;;;;;;;;;;5071934;28;19978;-54
2022/11/13 12:55:58;;;;;;;;;;;;;;;;;;5072256;28;20003;-54
2022/11/13 12:58:26;;;;;;;;;;;;;;;;;;5071749;28;19924;-54
2022/11/13 13:00:55;;;;;;;;;;;;;;;;;;5072674;28;20014;-54
2022/11/13 13:03:30;;;;;;;;;;;;;;;;;;5072027;28;20393;-58
2022/11/13 13:06:07;;;;;;;;;;;;;;;;;;5072392;28;19978;-57
2022/11/13 13:08:47;;;;;;;;;;;;;;;;;;5072498;28;19977;-55
2022/11/13 13:11:16;;;;;;;;;;;;;;;;;;5073035;28;20320;-57
2022/11/13 13:13:46;;;;;;;;;;;;;;;;;;5071805;28;19924;-57
2022/11/13 13:16:20;;;;;;;;;;;;;;;;;;5072358;28;20388;-54
2022/11/13 13:18:48;;;;;;;;;;;;;;;;;;5069049;28;20479;-57
2022/11/13 13:21:16;;;;;;;;;;;;;;;;;;5072157;28;19924;-58
2022/11/13 13:23:44;;;;;;;;;;;;;;;;;;5071660;28;20417;-56
2022/11/13 13:26:14;;;;;;;;;;;;;;;;;;5072165;28;19955;-54
2022/11/13 13:28:42;;;;;;;;;;;;;;;;;;5064284;28;19924;-53
2022/11/13 13:31:14;;;;;;;;;;;;;;;;;;5072321;28;19925;-57
2022/11/13 13:33:46;;;;;;;;;;;;;;;;;;5071825;28;19982;-53
2022/11/13 13:36:20;;;;;;;;;;;;;;;;;;5069968;28;19975;-55
2022/11/13 13:38:51;;;;;;;;;;;;;;;;;;5070493;28;20427;-54
2022/11/13 13:41:26;;;;;;;;;;;;;;;;;;5066444;28;19932;-56
2022/11/13 13:43:57;;;;;;;;;;;;;;;;;;5059561;28;20366;-56
2022/11/13 13:46:27;;;;;;;;;;;;;;;;;;5071863;28;20019;-53
2022/11/13 13:48:55;;;;;;;;;;;;;;;;;;5071697;28;20011;-53
2022/11/13 13:51:26;;;;;;;;;;;;;;;;;;5072375;28;19925;-51
2022/11/13 13:53:53;;;;;;;;;;;;;;;;;;5071933;28;19925;-55
2022/11/13 13:56:20;;;;;;;;;;;;;;;;;;5072039;28;19928;-56
2022/11/13 13:58:47;;;;;;;;;;;;;;;;;;5072117;28;19925;-49
2022/11/13 14:01:15;;;;;;;;;;;;;;;;;;5071931;28;19932;-54
2022/11/13 14:03:41;;;;;;;;;;;;;;;;;;5069825;28;20014;-55
2022/11/13 14:06:09;;;;;;;;;;;;;;;;;;5075568;28;19932;-53
2022/11/13 14:08:37;;;;;;;;;;;;;;;;;;5072047;28;19925;-55
2022/11/13 14:11:15;;;;;;;;;;;;;;;;;;5071524;28;19928;-55
2022/11/13 14:13:42;;;;;;;;;;;;;;;;;;5071943;28;20413;-54
2022/11/13 14:16:08;;;;;;;;;;;;;;;;;;5073176;28;19966;-50
2022/11/13 14:18:35;;;;;;;;;;;;;;;;;;5075131;28;19970;-54
2022/11/13 14:21:03;;;;;;;;;;;;;;;;;;5074329;28;19928;-55
2022/11/13 14:23:31;;;;;;;;;;;;;;;;;;5075229;28;19924;-57
2022/11/13 14:25:59;;;;;;;;;;;;;;;;;;5075509;28;19954;-55
2022/11/13 14:28:27;;;;;;;;;;;;;;;;;;5074981;28;19931;-54
2022/11/13 14:30:55;;;;;;;;;;;;;;;;;;5075284;28;20377;-57
2022/11/13 14:33:23;;;;;;;;;;;;;;;;;;5075226;28;19982;-55
2022/11/13 14:35:52;;;;;;;;;;;;;;;;;;5075061;28;19924;-54
2022/11/13 14:38:19;;;;;;;;;;;;;;;;;;5075160;28;19925;-53
2022/11/13 14:40:47;;;;;;;;;;;;;;;;;;5075298;28;19979;-54
2022/11/13 14:43:18;;;;;;;;;;;;;;;;;;5074917;28;20344;-55
2022/11/13 14:45:52;;;;;;;;;;;;;;;;;;5074819;28;19924;-51
2022/11/13 14:48:20;;;;;;;;;;;;;;;;;;5074877;28;19994;-57
2022/11/13 14:50:49;;;;;;;;;;;;;;;;;;5074885;28;19924;-53
2022/11/13 14:53:25;;;;;;;;;;;;;;;;;;5075034;28;19978;-56
2022/11/13 14:55:52;;;;;;;;;;;;;;;;;;5074687;28;19924;-54
2022/11/13 14:58:27;;;;;;;;;;;;;;;;;;5074644;28;19925;-52
2022/11/13 15:00:56;;;;;;;;;;;;;;;;;;5075096;28;20308;-58
2022/11/13 15:03:23;;;;;;;;;;;;;;;;;;5074503;28;19925;-54
2022/11/13 15:05:49;;;;;;;;;;;;;;;;;;5074866;28;20524;-55
2022/11/13 15:08:16;;;;;;;;;;;;;;;;;;5074588;28;19924;-52
2022/11/13 15:10:42;;;;;;;;;;;;;;;;;;5074615;28;19924;-53
2022/11/13 15:13:11;;;;;;;;;;;;;;;;;;5074749;28;20332;-52
2022/11/13 15:15:39;;;;;;;;;;;;;;;;;;5074433;28;20015;-56
2022/11/13 15:18:06;;;;;;;;;;;;;;;;;;5074692;28;20054;-56
2022/11/13 15:20:33;;;;;;;;;;;;;;;;;;5074388;28;19924;-55
2022/11/13 15:23:00;;;;;;;;;;;;;;;;;;5074601;28;19928;-56
2022/11/13 15:25:26;;;;;;;;;;;;;;;;;;5073778;28;19971;-56
2022/11/13 15:27:53;;;;;;;;;;;;;;;;;;5073723;28;19925;-54
2022/11/13 15:30:19;;;;;;;;;;;;;;;;;;5074300;28;19985;-55
2022/11/13 15:32:52;;;;;;;;;;;;;;;;;;5074190;28;19924;-55
2022/11/13 15:35:19;;;;;;;;;;;;;;;;;;5073880;28;20386;-54
2022/11/13 15:37:46;;;;;;;;;;;;;;;;;;5074149;28;20449;-54
2022/11/13 15:40:13;;;;;;;;;;;;;;;;;;5074101;28;19924;-57
2022/11/13 15:42:39;;;;;;;;;;;;;;;;;;5074182;28;19925;-53
2022/11/13 15:45:06;;;;;;;;;;;;;;;;;;5073892;28;19931;-54
2022/11/13 15:47:34;;;;;;;;;;;;;;;;;;5073938;28;19970;-52
2022/11/13 15:50:03;;;;;;;;;;;;;;;;;;5073792;28;20457;-54
2022/11/13 15:52:31;;;;;;;;;;;;;;;;;;5073830;28;19924;-51
2022/11/13 15:54:58;;;;;;;;;;;;;;;;;;5072622;28;19990;-54
2022/11/13 15:57:26;;;;;;;;;;;;;;;;;;5072653;28;19932;-54
2022/11/13 15:59:52;;;;;;;;;;;;;;;;;;5073011;28;20318;-56
2022/11/13 16:02:19;;;;;;;;;;;;;;;;;;5072353;28;19925;-53
2022/11/13 16:04:46;;;;;;;;;;;;;;;;;;5060535;28;19929;-56
2022/11/13 16:07:17;;;;;;;;;;;;;;;;;;5073066;28;20007;-56
2022/11/13 16:09:44;;;;;;;;;;;;;;;;;;5073523;28;20316;-57
2022/11/13 16:12:11;;;;;;;;;;;;;;;;;;5073700;28;20393;-56
2022/11/13 16:14:38;;;;;;;;;;;;;;;;;;5073145;28;20377;-57
2022/11/13 16:17:05;;;;;;;;;;;;;;;;;;5073259;28;19931;-56
2022/11/13 16:19:32;;;;;;;;;;;;;;;;;;5073602;28;19928;-55
2022/11/13 16:21:58;;;;;;;;;;;;;;;;;;5073640;28;19928;-56
2022/11/13 16:24:26;;;;;;;;;;;;;;;;;;5073273;28;20438;-56
2022/11/13 16:26:55;;;;;;;;;;;;;;;;;;5073887;28;19925;-56
2022/11/13 16:29:22;;;;;;;;;;;;;;;;;;5072953;28;19962;-56
2022/11/13 16:31:49;;;;;;;;;;;;;;;;;;5073208;28;20382;-56
2022/11/13 16:34:15;;;;;;;;;;;;;;;;;;5072688;28;20278;-57
2022/11/13 16:36:42;;;;;;;;;;;;;;;;;;5072725;28;19932;-56
2022/11/13 16:39:12;;;;;;;;;;;;;;;;;;5072695;28;19924;-56
2022/11/13 16:41:40;;;;;;;;;;;;;;;;;;5073093;28;20450;-52
2022/11/13 16:44:06;;;;;;;;;;;;;;;;;;5072796;28;20439;-55
2022/11/13 16:46:34;;;;;;;;;;;;;;;;;;5072535;28;19928;-52
2022/11/13 16:49:00;;;;;;;;;;;;;;;;;;5071781;28;19924;-58
2022/11/13 16:51:27;;;;;;;;;;;;;;;;;;5072497;28;19986;-55